Time;durP1;ratioP1;P1;durP2;ratioP2;P2;SDS_P1;SDS_P2;PMS_P1;PMS_P2;Temp;Humidity;BMP_temperature;BMP_pressure;BME280_temperature;BME280_humidity;BME280_pressure;Samples;Min_cycle;Max_cycle;Signal;HPM_P1;HPM_P2
2022/09/18 00:00:00;;;;;;;3.42;2.28;;;14.10;98.40;;;;;;4994936;28;20034;-74
2022/09/18 00:02:26;;;;;;;5.35;2.03;;;14.10;98.50;;;;;;5010513;28;20447;-73
2022/09/18 00:04:52;;;;;;;2.75;1.63;;;14.10;98.50;;;;;;5013605;28;20026;-74
2022/09/18 00:07:18;;;;;;;3.53;1.88;;;14.10;98.70;;;;;;5013697;28;20113;-73
2022/09/18 00:09:44;;;;;;;3.20;1.98;;;14.10;98.70;;;;;;5013239;28;20392;-74
2022/09/18 00:12:10;;;;;;;3.58;1.83;;;14.10;98.80;;;;;;4996693;28;20469;-73
2022/09/18 00:14:36;;;;;;;4.05;2.17;;;14.00;98.90;;;;;;5012378;28;20049;-73
2022/09/18 00:17:02;;;;;;;3.92;2.00;;;14.00;99.10;;;;;;5013368;28;20477;-73
2022/09/18 00:19:28;;;;;;;2.15;1.60;;;14.00;99.20;;;;;;5011955;28;20054;-73
2022/09/18 00:21:54;;;;;;;2.13;1.63;;;13.90;99.30;;;;;;5014288;28;20029;-73
2022/09/18 00:24:21;;;;;;;1.77;1.55;;;13.90;99.50;;;;;;5009929;28;20492;-74
2022/09/18 00:26:47;;;;;;;3.10;1.70;;;14.00;99.60;;;;;;5001330;28;20053;-72
2022/09/18 00:29:14;;;;;;;2.97;1.55;;;13.90;99.70;;;;;;4988819;28;20014;-72
2022/09/18 00:31:41;;;;;;;2.17;1.50;;;13.90;99.80;;;;;;5013684;28;20032;-72
2022/09/18 00:34:10;;;;;;;3.67;1.60;;;13.80;99.90;;;;;;4993627;28;20044;-71
2022/09/18 00:36:37;;;;;;;3.97;1.85;;;13.80;99.90;;;;;;5013261;28;20029;-72
2022/09/18 00:39:04;;;;;;;5.10;2.40;;;13.80;99.90;;;;;;5011124;28;20362;-72
2022/09/18 00:41:35;;;;;;;2.67;1.50;;;13.80;99.90;;;;;;5013094;28;20674;-72
2022/09/18 00:44:29;;;;;;;2.72;1.63;;;13.90;99.90;;;;;;5012705;28;20380;-72
2022/09/18 00:47:03;;;;;;;2.42;1.55;;;13.90;99.90;;;;;;5012088;28;20116;-72
2022/09/18 00:49:29;;;;;;;2.45;1.27;;;13.80;99.90;;;;;;5012752;28;20030;-72
2022/09/18 00:51:59;;;;;;;4.22;1.50;;;13.80;99.90;;;;;;5012500;28;20189;-72
2022/09/18 00:54:28;;;;;;;2.17;1.38;;;13.80;99.90;;;;;;5012450;28;20030;-73
2022/09/18 00:56:59;;;;;;;2.78;1.13;;;13.70;99.90;;;;;;5013018;28;20046;-73
2022/09/18 00:59:28;;;;;;;2.35;1.20;;;13.70;99.90;;;;;;5012500;28;20061;-73
2022/09/18 01:01:55;;;;;;;3.92;1.27;;;13.70;99.90;;;;;;5012109;28;20057;-73
2022/09/18 01:04:21;;;;;;;2.08;1.10;;;13.70;99.90;;;;;;5010443;28;20065;-73
2022/09/18 01:06:57;;;;;;;1.65;1.10;;;13.70;99.90;;;;;;4994779;28;20417;-73
2022/09/18 01:09:41;;;;;;;2.80;1.25;;;13.70;99.90;;;;;;5011348;28;20038;-73
2022/09/18 01:12:17;;;;;;;2.00;1.10;;;13.60;99.90;;;;;;5012315;28;20030;-73
2022/09/18 01:15:01;;;;;;;2.70;1.23;;;13.60;99.90;;;;;;5012122;28;20370;-73
2022/09/18 01:17:36;;;;;;;0.88;0.85;;;13.60;99.90;;;;;;5005168;28;20034;-73
2022/09/18 01:20:16;;;;;;;2.45;1.30;;;13.60;99.90;;;;;;5004817;28;20058;-73
2022/09/18 01:23:10;;;;;;;1.90;1.02;;;13.50;99.90;;;;;;5011139;28;20022;-72
2022/09/18 01:26:16;;;;;;;1.67;1.08;;;13.50;99.90;;;;;;5012477;28;20112;-73
2022/09/18 01:28:53;;;;;;;1.52;0.75;;;13.40;99.90;;;;;;5011373;28;20056;-73
2022/09/18 01:31:30;;;;;;;2.38;1.17;;;13.40;99.90;;;;;;5012309;28;20350;-74
2022/09/18 01:34:27;;;;;;;1.08;0.90;;;13.30;99.90;;;;;;5010959;28;20040;-74
2022/09/18 01:37:00;;;;;;;1.30;1.10;;;13.30;99.90;;;;;;4998216;28;20042;-74
2022/09/18 01:39:44;;;;;;;2.28;1.10;;;13.20;99.90;;;;;;5010754;28;20034;-74
2022/09/18 01:42:11;;;;;;;1.25;1.00;;;13.30;99.90;;;;;;5012771;28;20433;-74
2022/09/18 01:44:40;;;;;;;1.60;0.90;;;13.30;99.90;;;;;;5009562;28;20037;-74
2022/09/18 01:47:11;;;;;;;2.15;1.20;;;13.30;99.90;;;;;;5010931;28;20200;-74
2022/09/18 01:49:42;;;;;;;1.88;1.20;;;13.20;99.90;;;;;;4996836;28;20030;-74
2022/09/18 01:52:19;;;;;;;1.95;1.10;;;13.30;99.90;;;;;;4992931;28;20121;-74
2022/09/18 01:54:48;;;;;;;1.27;1.02;;;13.30;99.90;;;;;;5011204;28;20034;-74
2022/09/18 01:57:24;;;;;;;1.77;1.20;;;13.20;99.90;;;;;;5011853;28;20100;-74
2022/09/18 01:59:59;;;;;;;1.42;0.80;;;13.20;99.90;;;;;;5011996;28;20034;-74
2022/09/18 02:02:41;;;;;;;1.52;1.10;;;13.10;99.90;;;;;;4992415;28;21522;-74
2022/09/18 02:05:11;;;;;;;3.33;1.20;;;13.10;99.90;;;;;;4997006;28;20098;-73
2022/09/18 02:07:58;;;;;;;1.90;1.08;;;13.10;99.90;;;;;;5010710;28;20087;-72
2022/09/18 02:10:27;;;;;;;1.67;0.98;;;13.00;99.90;;;;;;5012642;28;20030;-72
2022/09/18 02:12:55;;;;;;;1.38;1.00;;;13.00;99.90;;;;;;5010876;28;20033;-73
2022/09/18 02:15:24;;;;;;;1.63;0.90;;;13.00;99.90;;;;;;5011369;28;20041;-73
2022/09/18 02:17:55;;;;;;;1.98;0.90;;;13.00;99.90;;;;;;5009760;28;20033;-72
2022/09/18 02:20:26;;;;;;;1.08;0.80;;;13.00;99.90;;;;;;5012036;28;20105;-72
2022/09/18 02:22:55;;;;;;;0.73;0.68;;;13.00;99.90;;;;;;5009520;28;20033;-72
2022/09/18 02:25:26;;;;;;;1.23;0.70;;;13.10;99.90;;;;;;5011765;28;20029;-73
2022/09/18 02:27:53;;;;;;;0.98;0.80;;;13.10;99.90;;;;;;5010742;28;20038;-72
2022/09/18 02:30:19;;;;;;;2.20;0.85;;;13.10;99.90;;;;;;5011601;28;20037;-72
2022/09/18 02:32:45;;;;;;;1.27;0.80;;;13.10;99.90;;;;;;5010512;28;20025;-71
2022/09/18 02:35:12;;;;;;;0.85;0.80;;;13.00;99.90;;;;;;5011162;28;20038;-73
2022/09/18 02:37:56;;;;;;;0.95;0.85;;;13.10;99.90;;;;;;5004686;28;20568;-73
2022/09/18 02:40:38;;;;;;;1.67;0.93;;;13.10;99.90;;;;;;5011491;28;20038;-74
2022/09/18 02:43:49;;;;;;;1.60;0.95;;;13.00;99.90;;;;;;5006342;28;20036;-75
2022/09/18 02:46:34;;;;;;;0.98;0.88;;;13.00;99.90;;;;;;4971920;28;20100;-75
2022/09/18 02:49:29;;;;;;;1.90;1.10;;;13.00;99.90;;;;;;5004921;28;20084;-74
2022/09/18 02:52:02;;;;;;;3.20;1.33;;;13.00;99.90;;;;;;4994543;28;20042;-74
2022/09/18 02:54:48;;;;;;;2.08;1.10;;;13.00;99.90;;;;;;5010267;28;20038;-75
2022/09/18 02:57:29;;;;;;;4.43;1.80;;;13.00;99.90;;;;;;5012053;28;20030;-75
2022/09/18 02:59:58;;;;;;;3.42;1.40;;;12.90;99.90;;;;;;5009502;28;20033;-76
2022/09/18 03:02:24;;;;;;;6.65;1.48;;;13.00;99.90;;;;;;5010666;28;20044;-76
2022/09/18 03:04:53;;;;;;;3.28;1.42;;;13.00;99.90;;;;;;5011228;28;20497;-78
2022/09/18 03:07:19;;;;;;;8.55;2.08;;;13.00;99.90;;;;;;5009949;28;20461;-77
2022/09/18 03:09:44;;;;;;;6.50;1.83;;;12.90;99.90;;;;;;5011745;28;20037;-77
2022/09/18 03:12:11;;;;;;;8.30;1.50;;;12.90;99.90;;;;;;5011825;28;20141;-76
2022/09/18 03:14:36;;;;;;;8.70;2.15;;;12.90;99.90;;;;;;5010967;28;20423;-76
2022/09/18 03:17:02;;;;;;;5.03;2.13;;;12.90;99.90;;;;;;5010944;28;20080;-76
2022/09/18 03:19:28;;;;;;;5.00;1.92;;;12.90;99.90;;;;;;5010859;28;20048;-76
2022/09/18 03:21:53;;;;;;;4.75;1.75;;;12.90;99.90;;;;;;4992378;28;20492;-72
2022/09/18 03:24:19;;;;;;;6.13;2.17;;;12.90;99.90;;;;;;5010606;28;20121;-73
2022/09/18 03:26:46;;;;;;;7.13;2.70;;;13.00;99.90;;;;;;4991922;28;20409;-72
2022/09/18 03:29:12;;;;;;;4.55;1.88;;;12.90;99.90;;;;;;5010451;28;20122;-72
2022/09/18 03:31:38;;;;;;;5.43;1.98;;;12.90;99.90;;;;;;5009861;28;20038;-71
2022/09/18 03:34:04;;;;;;;8.00;2.35;;;12.90;99.90;;;;;;5012468;28;20080;-72
2022/09/18 03:36:30;;;;;;;7.47;1.90;;;12.90;99.90;;;;;;5015141;28;20038;-71
2022/09/18 03:38:56;;;;;;;8.57;2.15;;;12.90;99.90;;;;;;5013399;28;20091;-71
2022/09/18 03:41:22;;;;;;;6.75;2.25;;;13.00;99.90;;;;;;5012808;28;20037;-71
2022/09/18 03:43:48;;;;;;;8.52;2.35;;;12.90;99.90;;;;;;4996379;28;20410;-72
2022/09/18 03:46:21;;;;;;;9.18;2.35;;;12.90;99.90;;;;;;5014135;28;20044;-72
2022/09/18 03:48:46;;;;;;;6.78;2.13;;;12.90;99.90;;;;;;5013407;28;20041;-72
2022/09/18 03:51:12;;;;;;;7.20;2.25;;;12.90;99.90;;;;;;4995599;28;20026;-73
2022/09/18 03:53:38;;;;;;;8.95;2.78;;;12.90;99.90;;;;;;5013838;28;20018;-72
2022/09/18 03:56:04;;;;;;;6.15;2.50;;;13.00;99.90;;;;;;5013820;28;20042;-72
2022/09/18 03:58:29;;;;;;;14.82;3.28;;;12.90;99.90;;;;;;5011124;28;20100;-72
2022/09/18 04:00:55;;;;;;;8.40;2.65;;;13.00;99.90;;;;;;5005323;28;20041;-72
2022/09/18 04:03:21;;;;;;;12.55;2.88;;;12.90;99.90;;;;;;5009014;28;20492;-72
2022/09/18 04:05:50;;;;;;;13.50;3.20;;;12.90;99.90;;;;;;5013260;28;20109;-72
2022/09/18 04:08:16;;;;;;;12.70;3.15;;;12.90;99.90;;;;;;5002967;28;20037;-72
2022/09/18 04:10:42;;;;;;;12.27;3.55;;;12.90;99.90;;;;;;4996356;28;20022;-72
2022/09/18 04:13:07;;;;;;;9.57;2.67;;;12.80;99.90;;;;;;5012767;28;20479;-71
2022/09/18 04:15:33;;;;;;;4.53;2.65;;;12.80;99.90;;;;;;5013376;28;20038;-72
2022/09/18 04:17:59;;;;;;;6.05;2.55;;;12.80;99.90;;;;;;5013187;28;20385;-72
2022/09/18 04:20:24;;;;;;;10.65;3.13;;;12.80;99.90;;;;;;5013264;28;20474;-72
2022/09/18 04:22:50;;;;;;;6.43;2.83;;;12.80;99.90;;;;;;5013693;28;20065;-73
2022/09/18 04:25:15;;;;;;;9.50;3.15;;;12.90;99.90;;;;;;5012317;28;20034;-72
2022/09/18 04:27:41;;;;;;;5.90;3.00;;;12.80;99.90;;;;;;4991943;28;20112;-72
2022/09/18 04:30:07;;;;;;;9.25;3.13;;;12.80;99.90;;;;;;4993605;28;20084;-72
2022/09/18 04:32:33;;;;;;;10.52;4.03;;;12.80;99.90;;;;;;4993668;28;20026;-73
2022/09/18 04:34:59;;;;;;;8.35;3.30;;;12.80;99.90;;;;;;4993266;28;20060;-73
2022/09/18 04:37:25;;;;;;;9.10;2.80;;;12.80;99.90;;;;;;4993329;28;20034;-73
2022/09/18 04:39:50;;;;;;;6.25;2.90;;;12.80;99.90;;;;;;4994031;28;20022;-72
2022/09/18 04:42:16;;;;;;;10.93;2.85;;;12.80;99.90;;;;;;4992918;28;20385;-73
2022/09/18 04:44:41;;;;;;;9.25;3.05;;;12.80;99.90;;;;;;4980097;28;20023;-72
2022/09/18 04:47:07;;;;;;;9.25;3.20;;;12.80;99.90;;;;;;4990293;28;20233;-72
2022/09/18 04:49:32;;;;;;;6.57;2.83;;;12.80;99.90;;;;;;4990285;28;20168;-71
2022/09/18 04:51:58;;;;;;;10.73;3.53;;;12.80;99.90;;;;;;4974822;28;20578;-73
2022/09/18 04:54:23;;;;;;;9.10;3.40;;;12.80;99.90;;;;;;4990095;28;20485;-72
2022/09/18 04:56:49;;;;;;;8.60;3.38;;;12.70;99.90;;;;;;4994502;28;20395;-72
2022/09/18 04:59:14;;;;;;;9.98;3.00;;;12.70;99.90;;;;;;4992421;28;20026;-72
2022/09/18 05:01:40;;;;;;;7.25;3.03;;;12.70;99.90;;;;;;4984123;28;20038;-73
2022/09/18 05:04:06;;;;;;;11.25;3.05;;;12.70;99.90;;;;;;4986697;28;20034;-73
2022/09/18 05:06:31;;;;;;;6.30;2.78;;;12.70;99.90;;;;;;4993037;28;20111;-73
2022/09/18 05:08:57;;;;;;;10.05;3.10;;;12.70;99.90;;;;;;4992559;28;20121;-72
2022/09/18 05:11:23;;;;;;;5.72;2.75;;;12.70;99.90;;;;;;4994347;28;20113;-72
2022/09/18 05:13:48;;;;;;;10.60;2.75;;;12.70;99.90;;;;;;4992461;28;20027;-73
2022/09/18 05:16:14;;;;;;;9.05;3.25;;;12.70;99.90;;;;;;4992754;28;20034;-73
2022/09/18 05:18:40;;;;;;;9.38;2.30;;;12.70;99.90;;;;;;4989555;28;20026;-72
2022/09/18 05:21:06;;;;;;;8.30;2.30;;;12.70;99.90;;;;;;4993934;28;20118;-71
2022/09/18 05:23:33;;;;;;;6.28;2.60;;;12.80;99.90;;;;;;4990737;28;20045;-73
2022/09/18 05:25:59;;;;;;;6.60;2.25;;;12.80;99.90;;;;;;4990612;28;20034;-72
2022/09/18 05:28:25;;;;;;;6.00;1.98;;;12.80;99.90;;;;;;4986292;28;20035;-73
2022/09/18 05:30:50;;;;;;;6.53;2.38;;;12.80;99.90;;;;;;4976456;28;20377;-72
2022/09/18 05:33:16;;;;;;;9.77;2.45;;;12.80;99.90;;;;;;4990840;28;20030;-71
2022/09/18 05:35:42;;;;;;;5.80;1.73;;;12.80;99.90;;;;;;4997073;28;20470;-72
2022/09/18 05:38:09;;;;;;;8.25;2.10;;;12.80;99.90;;;;;;5005033;28;20155;-72
2022/09/18 05:40:36;;;;;;;8.13;2.65;;;12.90;99.90;;;;;;5005181;28;20461;-72
2022/09/18 05:43:06;;;;;;;6.07;1.80;;;12.90;99.90;;;;;;5003327;28;20048;-72
2022/09/18 05:45:32;;;;;;;7.10;2.30;;;12.90;99.90;;;;;;5003506;28;20093;-72
2022/09/18 05:47:59;;;;;;;7.70;3.22;;;12.90;99.90;;;;;;5003004;28;20493;-72
2022/09/18 05:50:27;;;;;;;6.47;2.55;;;12.90;99.90;;;;;;4994542;28;20035;-72
2022/09/18 05:53:10;;;;;;;7.45;2.20;;;12.90;99.90;;;;;;5003418;28;20026;-72
2022/09/18 05:55:36;;;;;;;7.10;2.50;;;12.90;99.90;;;;;;5004199;28;20042;-70
2022/09/18 05:58:03;;;;;;;7.13;2.70;;;12.90;99.80;;;;;;5005278;28;20029;-72
2022/09/18 06:00:31;;;;;;;7.97;2.05;;;12.90;99.80;;;;;;5007264;28;20038;-71
2022/09/18 06:03:02;;;;;;;6.63;2.00;;;12.80;99.80;;;;;;5007914;28;20063;-71
2022/09/18 06:05:30;;;;;;;9.95;2.55;;;12.90;99.80;;;;;;5009913;28;20050;-72
2022/09/18 06:08:00;;;;;;;7.40;2.42;;;12.90;99.80;;;;;;5006588;28;20057;-72
2022/09/18 06:10:27;;;;;;;7.15;2.30;;;12.90;99.70;;;;;;5007683;28;20030;-72
2022/09/18 06:13:00;;;;;;;10.10;2.72;;;12.90;99.60;;;;;;5002884;28;20058;-72
2022/09/18 06:15:26;;;;;;;5.25;1.88;;;12.90;99.60;;;;;;5000821;28;20034;-71
2022/09/18 06:17:52;;;;;;;7.32;2.42;;;12.90;99.50;;;;;;4993868;28;20117;-73
2022/09/18 06:20:18;;;;;;;7.10;1.90;;;12.90;99.50;;;;;;4991761;28;20031;-72
2022/09/18 06:22:44;;;;;;;5.15;2.38;;;12.90;99.50;;;;;;4988475;28;20040;-73
2022/09/18 06:25:10;;;;;;;10.23;2.03;;;12.90;99.40;;;;;;4993211;28;20026;-73
2022/09/18 06:27:35;;;;;;;6.25;2.70;;;12.90;99.40;;;;;;4999035;28;20345;-74
2022/09/18 06:30:01;;;;;;;10.40;2.28;;;12.90;99.40;;;;;;5002199;28;20857;-75
2022/09/18 06:32:26;;;;;;;8.65;2.08;;;13.00;99.50;;;;;;4993181;28;20030;-70
2022/09/18 06:34:52;;;;;;;8.82;2.08;;;13.00;99.30;;;;;;4999864;28;20035;-71
2022/09/18 06:37:18;;;;;;;9.77;2.22;;;13.00;99.60;;;;;;5003110;28;20080;-71
2022/09/18 06:39:44;;;;;;;7.15;2.08;;;12.90;99.20;;;;;;5010474;28;20057;-72
2022/09/18 06:42:09;;;;;;;7.72;2.50;;;13.00;99.40;;;;;;5010834;28;20033;-71
2022/09/18 06:44:36;;;;;;;6.90;2.28;;;13.00;99.40;;;;;;5005672;28;20562;-73
2022/09/18 06:47:01;;;;;;;8.75;2.25;;;13.10;99.30;;;;;;5001554;28;20595;-73
2022/09/18 06:49:27;;;;;;;11.27;2.35;;;13.10;99.10;;;;;;5004824;28;20047;-72
2022/09/18 06:51:52;;;;;;;6.13;2.08;;;13.10;99.10;;;;;;5013089;28;20064;-73
2022/09/18 06:54:18;;;;;;;10.02;2.38;;;13.20;99.10;;;;;;5000295;28;20137;-74
2022/09/18 06:56:45;;;;;;;8.50;1.95;;;13.20;99.00;;;;;;5004190;28;20056;-74
2022/09/18 06:59:11;;;;;;;8.77;2.67;;;13.30;98.90;;;;;;5008113;28;20026;-74
2022/09/18 07:01:36;;;;;;;8.73;2.30;;;13.30;98.80;;;;;;5010438;28;20449;-75
2022/09/18 07:04:02;;;;;;;6.70;2.30;;;13.30;98.80;;;;;;5008114;28;20287;-75
2022/09/18 07:06:28;;;;;;;10.90;2.25;;;13.40;98.70;;;;;;5010504;28;20045;-74
2022/09/18 07:08:54;;;;;;;5.70;2.33;;;13.40;98.60;;;;;;5000126;28;20027;-73
2022/09/18 07:11:20;;;;;;;6.38;2.05;;;13.40;98.50;;;;;;4995953;28;20030;-74
2022/09/18 07:13:46;;;;;;;8.90;2.50;;;13.40;98.40;;;;;;5011276;28;20515;-74
2022/09/18 07:16:12;;;;;;;8.15;2.40;;;13.40;98.40;;;;;;5014364;28;20045;-74
2022/09/18 07:18:38;;;;;;;8.25;2.03;;;13.40;98.40;;;;;;4987844;28;20034;-74
2022/09/18 07:21:04;;;;;;;7.47;2.00;;;13.40;98.20;;;;;;4981892;28;20386;-74
2022/09/18 07:23:32;;;;;;;9.18;2.83;;;13.40;98.20;;;;;;4987600;28;20026;-73
2022/09/18 07:26:02;;;;;;;8.75;2.47;;;13.40;98.20;;;;;;4987798;28;20037;-74
2022/09/18 07:28:28;;;;;;;6.57;2.38;;;13.40;98.10;;;;;;4988088;28;20046;-73
2022/09/18 07:30:54;;;;;;;6.95;1.73;;;13.50;98.20;;;;;;4976150;28;21863;-75
2022/09/18 07:33:20;;;;;;;7.85;2.20;;;13.50;98.10;;;;;;4992869;28;20034;-75
2022/09/18 07:35:46;;;;;;;6.32;2.55;;;13.50;98.10;;;;;;4992724;28;20080;-75
2022/09/18 07:38:12;;;;;;;10.68;2.10;;;13.60;98.10;;;;;;4986291;28;20129;-74
2022/09/18 07:40:40;;;;;;;7.35;2.13;;;13.70;98.20;;;;;;4983111;28;20109;-75
2022/09/18 07:43:07;;;;;;;7.50;1.88;;;13.70;98.10;;;;;;4960700;28;20023;-75
2022/09/18 07:45:34;;;;;;;4.95;2.10;;;13.70;97.70;;;;;;4993281;28;20045;-74
2022/09/18 07:48:04;;;;;;;6.15;1.80;;;13.80;97.60;;;;;;4993458;28;20026;-76
2022/09/18 07:50:30;;;;;;;6.50;2.10;;;13.80;97.50;;;;;;4981631;28;20030;-76
2022/09/18 07:52:58;;;;;;;7.63;2.00;;;13.90;97.50;;;;;;4989142;28;20031;-76
2022/09/18 07:55:25;;;;;;;8.13;2.10;;;13.90;97.50;;;;;;4992918;28;20453;-76
2022/09/18 07:58:00;;;;;;;5.50;1.73;;;13.90;97.30;;;;;;4975692;28;20026;-76
2022/09/18 08:00:27;;;;;;;10.55;2.00;;;14.00;97.10;;;;;;4993952;28;20624;-75
2022/09/18 08:03:03;;;;;;;7.47;1.95;;;14.00;97.20;;;;;;4963420;28;20109;-75
2022/09/18 08:05:29;;;;;;;6.32;2.28;;;14.10;97.10;;;;;;4977738;28;20031;-76
2022/09/18 08:08:00;;;;;;;8.35;2.15;;;14.10;97.00;;;;;;4970049;28;20034;-76
2022/09/18 08:10:29;;;;;;;10.10;2.85;;;14.10;96.90;;;;;;4975163;28;20034;-76
2022/09/18 08:12:54;;;;;;;11.40;1.95;;;14.10;96.60;;;;;;4969274;28;20029;-74
2022/09/18 08:15:20;;;;;;;8.32;1.77;;;14.10;96.40;;;;;;4990002;28;20392;-75
2022/09/18 08:17:45;;;;;;;5.10;1.65;;;14.10;96.60;;;;;;4984498;28;20034;-73
2022/09/18 08:20:12;;;;;;;6.60;2.67;;;14.30;96.70;;;;;;4982607;28;20556;-74
2022/09/18 08:22:38;;;;;;;7.35;2.40;;;14.40;96.50;;;;;;4988813;28;20294;-74
2022/09/18 08:25:05;;;;;;;9.45;2.20;;;14.50;96.40;;;;;;4983549;28;20031;-75
2022/09/18 08:27:30;;;;;;;4.25;1.73;;;14.50;96.30;;;;;;4985921;28;20398;-74
2022/09/18 08:29:57;;;;;;;7.40;2.10;;;14.60;96.20;;;;;;4974997;28;20026;-74
2022/09/18 08:32:22;;;;;;;5.22;1.92;;;14.60;95.90;;;;;;4986223;28;20034;-74
2022/09/18 08:34:48;;;;;;;4.85;1.77;;;14.60;96.00;;;;;;4980061;28;20030;-73
2022/09/18 08:37:13;;;;;;;4.45;1.65;;;14.70;95.90;;;;;;4993367;28;20390;-75
2022/09/18 08:39:39;;;;;;;8.32;2.08;;;14.70;95.80;;;;;;4991146;28;20031;-72
2022/09/18 08:42:07;;;;;;;6.65;2.00;;;14.80;95.80;;;;;;4990703;28;20184;-72
2022/09/18 08:45:02;;;;;;;7.53;2.50;;;14.80;96.00;;;;;;4990701;28;20378;-72
2022/09/18 08:47:51;;;;;;;8.43;1.95;;;15.00;95.80;;;;;;4981928;28;20137;-72
2022/09/18 08:50:27;;;;;;;7.80;3.33;;;14.90;95.40;;;;;;4983393;28;20489;-72
2022/09/18 08:53:03;;;;;;;8.32;3.03;;;15.00;95.40;;;;;;4981986;28;20053;-72
2022/09/18 08:55:40;;;;;;;7.90;2.05;;;15.00;95.40;;;;;;4993568;28;20035;-72
2022/09/18 08:58:14;;;;;;;8.77;2.63;;;15.10;95.30;;;;;;4991705;28;20058;-73
2022/09/18 09:00:44;;;;;;;7.88;2.20;;;15.10;95.30;;;;;;4991931;28;20080;-72
2022/09/18 09:03:23;;;;;;;6.57;1.75;;;15.20;94.80;;;;;;4992084;28;20037;-71
2022/09/18 09:06:05;;;;;;;7.32;1.50;;;15.20;94.60;;;;;;4991134;28;20034;-72
2022/09/18 09:08:33;;;;;;;4.05;1.60;;;15.30;94.50;;;;;;4972342;28;20030;-72
2022/09/18 09:11:35;;;;;;;6.32;2.70;;;15.20;94.50;;;;;;4992655;28;20096;-71
2022/09/18 09:14:18;;;;;;;5.93;2.03;;;15.20;94.50;;;;;;4932576;29;20035;-72
2022/09/18 09:16:59;;;;;;;5.97;2.13;;;15.30;94.60;;;;;;4968812;28;20165;-72
2022/09/18 09:19:39;;;;;;;5.65;1.65;;;15.40;94.50;;;;;;4989103;28;20052;-71
2022/09/18 09:22:15;;;;;;;11.65;2.47;;;15.40;94.20;;;;;;4993570;28;20039;-72
2022/09/18 09:25:07;;;;;;;7.00;1.88;;;15.50;94.10;;;;;;4992762;28;20030;-72
2022/09/18 09:27:41;;;;;;;4.60;1.55;;;15.50;93.80;;;;;;4974307;28;20047;-72
2022/09/18 09:30:17;;;;;;;5.00;2.00;;;15.60;93.60;;;;;;4992527;28;20450;-71
2022/09/18 09:32:54;;;;;;;2.88;1.52;;;15.60;93.50;;;;;;4992119;28;20061;-71
2022/09/18 09:35:24;;;;;;;6.15;1.73;;;15.60;93.40;;;;;;4986506;28;20522;-71
2022/09/18 09:37:52;;;;;;;5.03;1.80;;;15.60;93.20;;;;;;4979299;28;20027;-71
2022/09/18 09:40:19;;;;;;;4.45;1.77;;;15.70;93.20;;;;;;4993392;28;20034;-72
2022/09/18 09:42:47;;;;;;;6.43;2.60;;;15.70;93.00;;;;;;4992076;28;20113;-74
2022/09/18 09:45:32;;;;;;;4.25;1.60;;;15.60;92.90;;;;;;4975454;28;20026;-72
2022/09/18 09:48:03;;;;;;;3.85;1.33;;;15.70;92.90;;;;;;4984613;28;20073;-73
2022/09/18 09:50:39;;;;;;;3.65;1.55;;;15.70;93.10;;;;;;4982844;28;20030;-73
2022/09/18 09:53:11;;;;;;;3.60;1.60;;;15.70;92.80;;;;;;4970956;28;20385;-73
2022/09/18 09:56:02;;;;;;;6.45;1.75;;;15.70;92.80;;;;;;4978589;28;20041;-73
2022/09/18 09:58:38;;;;;;;4.45;1.80;;;15.80;92.70;;;;;;4991402;28;20459;-74
2022/09/18 10:01:29;;;;;;;6.07;1.65;;;15.80;92.60;;;;;;4973122;28;20473;-72
2022/09/18 10:04:30;;;;;;;6.38;2.03;;;15.80;92.60;;;;;;4981829;28;20472;-72
2022/09/18 10:07:12;;;;;;;4.93;1.75;;;15.80;92.80;;;;;;4975965;28;20031;-71
2022/09/18 10:10:10;;;;;;;6.22;1.42;;;15.80;92.90;;;;;;4989887;28;20389;-71
2022/09/18 10:12:55;;;;;;;6.78;1.92;;;15.80;93.10;;;;;;4978875;28;20041;-71
2022/09/18 10:15:30;;;;;;;6.30;1.75;;;15.70;93.20;;;;;;4973460;28;20508;-71
2022/09/18 10:18:00;;;;;;;8.23;1.73;;;15.70;93.40;;;;;;4990225;28;20023;-71
2022/09/18 10:20:27;;;;;;;5.38;1.90;;;15.60;93.50;;;;;;4991267;28;20540;-71
2022/09/18 10:22:57;;;;;;;6.05;1.70;;;15.60;93.80;;;;;;4982935;28;20057;-72
2022/09/18 10:25:34;;;;;;;10.57;2.35;;;15.70;93.90;;;;;;4991162;28;20030;-70
2022/09/18 10:28:00;;;;;;;4.72;1.80;;;15.70;93.90;;;;;;4973148;28;20389;-71
2022/09/18 10:30:25;;;;;;;4.25;1.50;;;15.80;93.70;;;;;;4982815;28;20031;-71
2022/09/18 10:32:51;;;;;;;9.80;1.73;;;15.80;93.50;;;;;;4989980;28;20124;-71
2022/09/18 10:35:29;;;;;;;4.82;1.50;;;15.90;93.30;;;;;;4989219;28;20121;-72
2022/09/18 10:37:56;;;;;;;5.45;1.35;;;16.00;93.10;;;;;;4977183;28;20041;-71
2022/09/18 10:40:31;;;;;;;5.35;1.58;;;16.10;92.90;;;;;;4990957;28;20409;-72
2022/09/18 10:42:58;;;;;;;5.53;1.50;;;16.20;92.70;;;;;;4989772;28;20026;-73
2022/09/18 10:45:28;;;;;;;6.00;2.35;;;16.20;92.50;;;;;;4995711;28;20390;-73
2022/09/18 10:48:13;;;;;;;4.75;1.67;;;16.20;92.60;;;;;;4987268;28;20101;-71
2022/09/18 10:50:54;;;;;;;2.78;1.55;;;16.30;92.40;;;;;;4994841;28;20405;-71
2022/09/18 10:53:28;;;;;;;5.03;1.73;;;16.30;91.80;;;;;;4987249;28;20084;-71
2022/09/18 10:56:03;;;;;;;6.68;1.42;;;16.30;91.30;;;;;;4994406;28;20520;-72
2022/09/18 10:58:31;;;;;;;3.42;1.90;;;16.30;91.20;;;;;;4993364;28;20444;-71
2022/09/18 11:01:08;;;;;;;6.00;1.73;;;16.40;91.40;;;;;;4979908;28;20773;-70
2022/09/18 11:03:42;;;;;;;2.90;1.35;;;16.40;91.30;;;;;;4987306;28;20034;-69
2022/09/18 11:06:19;;;;;;;3.33;1.20;;;16.30;91.80;;;;;;4995937;28;20030;-70
2022/09/18 11:08:48;;;;;;;4.63;1.63;;;16.20;92.00;;;;;;4989575;28;20042;-70
2022/09/18 11:11:33;;;;;;;7.50;1.70;;;16.10;92.30;;;;;;4992133;28;20031;-70
2022/09/18 11:14:04;;;;;;;4.80;1.60;;;16.00;92.50;;;;;;4987701;28;20421;-70
2022/09/18 11:16:53;;;;;;;3.20;1.63;;;16.00;92.80;;;;;;4984850;28;20129;-72
2022/09/18 11:19:31;;;;;;;5.70;1.85;;;16.00;93.00;;;;;;4990202;28;20018;-70
2022/09/18 11:22:06;;;;;;;6.85;1.98;;;16.00;93.30;;;;;;4994941;28;20037;-69
2022/09/18 11:24:33;;;;;;;6.05;1.83;;;16.00;93.30;;;;;;4975497;28;20446;-71
2022/09/18 11:27:02;;;;;;;4.28;1.60;;;16.00;93.40;;;;;;4993256;28;20049;-70
2022/09/18 11:29:29;;;;;;;3.40;1.50;;;16.10;93.50;;;;;;4977426;28;20030;-69
2022/09/18 11:31:55;;;;;;;6.00;1.60;;;16.00;93.00;;;;;;4993446;28;20038;-72
2022/09/18 11:34:26;;;;;;;2.65;1.02;;;16.00;92.30;;;;;;4992615;28;20409;-72
2022/09/18 11:36:57;;;;;;;3.03;1.25;;;15.90;92.10;;;;;;4994516;28;20097;-72
2022/09/18 11:39:32;;;;;;;2.45;1.50;;;15.80;92.30;;;;;;4996052;28;20026;-72
2022/09/18 11:41:58;;;;;;;2.95;1.27;;;15.80;92.40;;;;;;4994564;28;20093;-72
2022/09/18 11:44:27;;;;;;;6.68;1.60;;;15.80;92.50;;;;;;4995353;28;20026;-74
2022/09/18 11:47:17;;;;;;;5.45;1.50;;;15.80;92.60;;;;;;4980052;28;20031;-72
2022/09/18 11:49:54;;;;;;;6.95;1.58;;;15.80;92.70;;;;;;4976074;28;20027;-72
2022/09/18 11:52:37;;;;;;;4.82;1.60;;;15.80;92.70;;;;;;4976956;28;20054;-73
2022/09/18 11:55:08;;;;;;;3.28;2.03;;;15.70;92.70;;;;;;4987341;28;21006;-73
2022/09/18 11:57:39;;;;;;;4.97;1.85;;;15.70;92.80;;;;;;4988946;28;20040;-72
2022/09/18 12:00:24;;;;;;;6.75;2.22;;;15.70;92.70;;;;;;4987630;28;20022;-73
2022/09/18 12:02:58;;;;;;;8.18;2.65;;;15.70;92.80;;;;;;4991848;28;20117;-71
2022/09/18 12:05:38;;;;;;;6.65;2.80;;;15.70;92.90;;;;;;4980739;28;20058;-72
2022/09/18 12:08:21;;;;;;;5.75;1.85;;;15.70;92.90;;;;;;4968165;28;20023;-72
2022/09/18 12:11:11;;;;;;;6.55;1.95;;;15.80;92.90;;;;;;4981812;28;20033;-72
2022/09/18 12:14:01;;;;;;;5.15;1.85;;;15.80;93.00;;;;;;5001846;28;20049;-72
2022/09/18 12:16:54;;;;;;;5.30;1.73;;;15.90;93.00;;;;;;5013737;28;20108;-71
2022/09/18 12:19:41;;;;;;;6.90;1.80;;;16.00;92.90;;;;;;4995139;28;20034;-70
2022/09/18 12:22:12;;;;;;;5.05;1.70;;;16.00;92.70;;;;;;4993315;28;20149;-72
2022/09/18 12:24:38;;;;;;;5.40;1.40;;;15.90;92.70;;;;;;4994371;28;20026;-71
2022/09/18 12:27:13;;;;;;;2.25;1.10;;;15.80;92.60;;;;;;4993392;28;20134;-71
2022/09/18 12:29:57;;;;;;;;;;;15.60;92.60;;;;;;4995256;28;20072;-71
2022/09/18 12:32:55;;;;;;;5.05;1.35;;;15.50;92.60;;;;;;4992276;28;20439;-69
2022/09/18 12:35:21;;;;;;;2.22;1.45;;;15.30;92.60;;;;;;4993564;28;20118;-71
2022/09/18 12:38:08;;;;;;;2.80;1.15;;;15.20;92.70;;;;;;4994371;28;20117;-71
2022/09/18 12:40:45;;;;;;;3.00;1.80;;;15.30;93.10;;;;;;4993285;28;20062;-71
2022/09/18 12:43:36;;;;;;;3.47;1.45;;;15.30;92.90;;;;;;4994069;28;20050;-71
2022/09/18 12:46:28;;;;;;;2.85;1.58;;;15.30;93.00;;;;;;4993396;28;20049;-72
2022/09/18 12:49:21;;;;;;;2.75;1.20;;;15.40;93.10;;;;;;4993080;28;20113;-73
2022/09/18 12:52:00;;;;;;;5.18;1.70;;;15.30;92.80;;;;;;4974687;28;20026;-72
2022/09/18 12:54:58;;;;;;;3.08;1.30;;;15.30;92.80;;;;;;4979659;28;20050;-72
2022/09/18 12:57:43;;;;;;;3.53;1.48;;;15.40;93.00;;;;;;4993852;28;20044;-72
2022/09/18 13:00:15;;;;;;;2.67;1.30;;;15.50;93.00;;;;;;4992961;28;20034;-73
2022/09/18 13:02:53;;;;;;;3.65;1.45;;;15.50;93.10;;;;;;4963489;28;20109;-73
2022/09/18 13:05:37;;;;;;;3.75;1.42;;;15.60;92.90;;;;;;4980158;28;20036;-73
2022/09/18 13:08:45;;;;;;;6.28;1.80;;;15.60;92.60;;;;;;4976213;28;20026;-69